Main page
METAR-TAF:

METAR-TAF

Airports :

Colmar Airport

Colmar, France

latitude: 48-06-37N, longitude: 7-21-33E, elevation: 191 m

Current weather observation

The report was made 21 minutes ago, at 16:30 UTC
Wind 2 kt from variable directions
Temperature 12°C
Humidity 94%
Pressure 1012 hPa
Visibility: 8000 m
Overcast at a height of 700 ft

METAR: LFGA 231630Z AUTO VRB02KT 8000 OVC007 12/11 Q1012

Time: 18:51 (16:51 UTC)


TAF: missing

Weather observations and forecasts of more than 4000 airports (METAR and TAF reports).

The available stations are represented by yellow and red dots on the map.

Hover mouse over dot to see the name of the station.

Then click to see weather observations and forecasts.

To change the map : click on the green buttons with a black cross to zoom in, on the green button with a dash to zoom out, or on the green arrows for adjacent maps.


METAR-TAF: